SBTF

Details ICAO SBTF (TFF)
Name TEFE
Region Brazil
Timezone America/Manaus (UTC-4.0)
Plans Departing 27
Arriving 15
Stats Elevation 184 ft / 56 m (AMSL)
Location -3.382943° -64.724056°
Runways 1
Magnetic Variation 12.889° W
Sunrise 2018-05-26 10:19:03 UTC / 2018-05-26 06:19:03 Local
Sunset 2018-05-26 22:15:44 UTC / 2018-05-26 18:15:44 Local
Advertisement - Login to hide

Runways

ID Width Length Bearing (true) Bearing (mag) Surface Threshold Offset Overrun Length
15 148 ft / 45 m 7,232 ft / 2,204 m 137.81° 150.70° Asphalt 0 ft / 0 m 0 ft / 0 m
33 148 ft / 45 m 7,232 ft / 2,204 m 317.81° 330.70° Asphalt 0 ft / 0 m 0 ft / 0 m

Map

Weather


0- 5 10 15 20 25 30 35+ Temperature / ° C

Clouds and Precipitation
Forecast for 2018-05-26 12:00 UTC. Updated an hour ago

Ground ~20,000 ft ~40,000 ft Winds

METAR

SBTF 261200Z 24002KT 9999 FEW007 SCT090 25/25 Q1014

TAF

Not found

Frequencies

Tower 125.90 MHz RDO
Warning: Do not use this data for real-world aviation or navigation. No guarantee of current accuracy is given.